Time;durP1;ratioP1;P1;durP2;ratioP2;P2;SDS_P1;SDS_P2;PMS_P1;PMS_P2;Temp;Humidity;BMP_temperature;BMP_pressure;BME280_temperature;BME280_humidity;BME280_pressure;Samples;Min_cycle;Max_cycle;Signal;HPM_P1;HPM_P2
2021/12/16 00:09:38;;;;;;;0.10;0.10;;;6.40;99.90;226.50;231333.00;;;;4992837;28;20216;-74
2021/12/16 00:29:40;;;;;;;0.10;0.10;;;6.30;99.90;226.50;231333.00;;;;4992531;28;20235;-74
2021/12/16 00:32:22;;;;;;;0.10;0.10;;;6.30;99.90;226.50;231333.00;;;;4992838;28;20204;-75
2021/12/16 00:34:51;;;;;;;0.08;0.08;;;6.30;99.90;226.50;231333.00;;;;4992344;28;20323;-73
2021/12/16 00:37:19;;;;;;;0.10;0.10;;;6.30;99.90;226.50;231333.00;;;;4990508;28;20602;-74
2021/12/16 00:39:48;;;;;;;0.10;0.10;;;6.40;99.90;226.50;231333.00;;;;4992449;28;20213;-74
2021/12/16 00:42:30;;;;;;;0.10;0.10;;;6.40;99.90;226.50;231333.00;;;;5005824;28;20757;-74
2021/12/16 00:45:22;;;;;;;0.00;0.00;;;6.40;99.90;226.50;231333.00;;;;4983712;28;20282;-75
2021/12/16 00:47:57;;;;;;;0.10;0.10;;;6.40;99.90;226.50;231333.00;;;;4986081;28;20223;-74
2021/12/16 00:56:14;;;;;;;0.10;0.10;;;6.40;99.90;226.50;231333.00;;;;4987999;28;20239;-74
2021/12/16 00:58:51;;;;;;;0.05;0.05;;;6.40;99.90;226.50;231333.00;;;;4983535;28;20205;-74
2021/12/16 01:01:34;;;;;;;0.10;0.10;;;6.40;99.90;226.50;231333.00;;;;4990861;28;20212;-74
2021/12/16 01:04:41;;;;;;;0.10;0.10;;;6.40;99.90;226.50;231333.00;;;;4989448;28;20256;-74
2021/12/16 01:07:37;;;;;;;0.10;0.10;;;6.40;99.90;226.50;231333.00;;;;4991304;28;20196;-74
2021/12/16 01:35:28;;;;;;;0.10;0.10;;;6.30;99.90;226.50;231333.00;;;;4990586;28;20579;-74
2021/12/16 01:38:31;;;;;;;0.10;0.10;;;6.30;99.90;226.50;231333.00;;;;5006189;28;20201;-75
2021/12/16 01:41:34;;;;;;;0.00;0.00;;;6.30;99.90;226.50;231333.00;;;;5003994;28;20208;-74
2021/12/16 01:47:16;;;;;;;0.10;0.10;;;6.30;99.90;226.50;231333.00;;;;5002386;28;20207;-75
2021/12/16 01:49:55;;;;;;;0.10;0.10;;;6.30;99.90;226.50;231333.00;;;;4989959;28;20701;-74
2021/12/16 01:53:02;;;;;;;0.10;0.10;;;6.20;99.90;226.50;231333.00;;;;4985873;28;20207;-74
2021/12/16 01:55:44;;;;;;;0.10;0.10;;;6.20;99.90;226.50;231333.00;;;;4984843;28;20657;-75
2021/12/16 01:58:16;;;;;;;0.00;0.00;;;6.20;99.90;226.50;231333.00;;;;5004849;28;20208;-74
2021/12/16 02:01:10;;;;;;;0.00;0.00;;;6.30;99.90;226.50;231333.00;;;;4990012;28;20469;-75
2021/12/16 02:03:45;;;;;;;0.10;0.10;;;6.30;99.90;226.50;231333.00;;;;4989007;28;20239;-74
2021/12/16 02:06:41;;;;;;;0.10;0.10;;;6.30;99.90;226.50;231333.00;;;;4988660;28;20657;-73
2021/12/16 02:09:18;;;;;;;0.10;0.10;;;6.30;99.90;226.50;231333.00;;;;4987429;28;20239;-74
2021/12/16 02:11:55;;;;;;;0.10;0.10;;;6.40;99.90;226.50;231333.00;;;;4991110;28;20333;-74
2021/12/16 02:28:39;;;;;;;0.10;0.10;;;6.50;99.90;226.50;231333.00;;;;4954849;28;20268;-74
2021/12/16 02:31:26;;;;;;;0.10;0.10;;;6.40;99.90;226.50;231333.00;;;;5009644;28;20207;-73
2021/12/16 02:34:21;;;;;;;0.10;0.10;;;6.40;99.90;226.50;231333.00;;;;5001563;28;20227;-73
2021/12/16 02:36:53;;;;;;;0.00;0.00;;;6.40;99.90;226.50;231333.00;;;;5008993;28;20216;-74
2021/12/16 02:39:26;;;;;;;0.10;0.10;;;6.40;99.90;226.50;231333.00;;;;4993517;28;20208;-73
2021/12/16 02:41:59;;;;;;;0.10;0.10;;;6.50;99.90;226.50;231333.00;;;;4992271;28;20192;-74
2021/12/16 02:44:34;;;;;;;0.10;0.10;;;6.50;99.90;226.50;231333.00;;;;4993274;28;20228;-74
2021/12/16 02:49:55;;;;;;;0.10;0.10;;;6.60;99.90;226.50;231333.00;;;;4995231;28;20251;-73
2021/12/16 02:52:26;;;;;;;0.10;0.10;;;6.60;99.90;226.50;231333.00;;;;5007782;28;20208;-74
2021/12/16 02:54:55;;;;;;;0.10;0.10;;;6.60;99.90;226.50;231333.00;;;;4993120;28;20232;-74
2021/12/16 02:57:25;;;;;;;0.08;0.08;;;6.60;99.90;226.50;231333.00;;;;5010007;28;20196;-74
2021/12/16 02:59:55;;;;;;;0.10;0.10;;;6.60;99.90;226.50;231333.00;;;;4995336;28;20205;-74
2021/12/16 03:02:26;;;;;;;0.08;0.08;;;6.60;99.90;226.50;231333.00;;;;4995029;28;20220;-73
2021/12/16 03:04:55;;;;;;;0.03;0.03;;;6.60;99.90;226.50;231333.00;;;;4993913;28;20239;-73
2021/12/16 03:07:24;;;;;;;0.10;0.10;;;6.70;99.90;226.50;231333.00;;;;5023902;28;20200;-75
2021/12/16 03:12:53;;;;;;;0.05;0.05;;;6.70;99.90;226.50;231333.00;;;;5030903;28;20224;-76
2021/12/16 03:15:33;;;;;;;0.10;0.10;;;6.70;99.90;226.50;231333.00;;;;5016245;28;20219;-76
2021/12/16 03:18:08;;;;;;;0.08;0.08;;;6.70;99.90;226.50;231333.00;;;;5018350;28;20180;-75
2021/12/16 03:20:42;;;;;;;0.05;0.05;;;6.70;99.90;226.50;231333.00;;;;5017025;28;20198;-73
2021/12/16 03:23:29;;;;;;;0.00;0.00;;;6.80;99.90;226.50;231333.00;;;;4990600;28;20229;-74
2021/12/16 03:26:30;;;;;;;0.10;0.10;;;6.80;99.90;226.50;231333.00;;;;4986478;28;20204;-74
2021/12/16 03:29:15;;;;;;;0.10;0.10;;;6.80;99.90;226.50;231333.00;;;;4993802;28;20199;-73
2021/12/16 03:32:11;;;;;;;0.10;0.10;;;6.70;99.90;226.50;231333.00;;;;4987381;28;20267;-73
2021/12/16 03:34:55;;;;;;;0.10;0.10;;;6.60;99.90;226.50;231333.00;;;;4984063;28;20238;-73
2021/12/16 03:37:27;;;;;;;0.10;0.10;;;6.60;99.90;226.50;231333.00;;;;4992699;28;20208;-74
2021/12/16 03:40:03;;;;;;;0.10;0.10;;;6.60;99.90;226.50;231333.00;;;;5000662;28;20255;-73
2021/12/16 03:42:37;;;;;;;0.10;0.10;;;6.60;99.90;226.50;231333.00;;;;4990705;28;20204;-76
2021/12/16 03:46:25;;;;;;;0.08;0.08;;;6.60;99.90;226.50;231333.00;;;;5008118;28;20328;-74
2021/12/16 03:48:09;;;;;;;0.10;0.10;;;6.60;99.90;226.50;231333.00;;;;4991558;28;20204;-74
2021/12/16 03:50:38;;;;;;;0.10;0.10;;;6.60;99.90;226.50;231333.00;;;;5005847;28;20252;-74
2021/12/16 03:53:13;;;;;;;0.10;0.10;;;6.60;99.90;226.50;231333.00;;;;4991612;28;20224;-73
2021/12/16 03:55:41;;;;;;;0.00;0.00;;;6.60;99.90;226.50;231333.00;;;;4992885;28;20196;-73
2021/12/16 03:58:09;;;;;;;0.10;0.10;;;6.60;99.90;226.50;231333.00;;;;4999177;28;20200;-72
2021/12/16 04:00:51;;;;;;;0.00;0.00;;;6.60;99.90;226.50;231333.00;;;;4988635;28;20205;-74
2021/12/16 04:03:19;;;;;;;0.10;0.10;;;6.60;99.90;226.50;231333.00;;;;4991936;28;20236;-73
2021/12/16 04:05:49;;;;;;;0.10;0.10;;;6.60;99.90;226.50;231333.00;;;;4990560;28;20230;-73
2021/12/16 04:08:19;;;;;;;0.10;0.10;;;6.60;99.90;226.50;231333.00;;;;4992533;28;20287;-73
2021/12/16 04:11:02;;;;;;;0.10;0.10;;;6.60;99.90;226.50;231333.00;;;;4991810;28;20228;-73
2021/12/16 04:13:52;;;;;;;0.10;0.10;;;6.60;99.90;226.50;231333.00;;;;4991281;28;20255;-74
2021/12/16 04:16:31;;;;;;;0.03;0.03;;;6.60;99.90;226.50;231333.00;;;;4984960;28;20193;-73
2021/12/16 04:19:05;;;;;;;0.00;0.00;;;6.60;99.90;226.50;231333.00;;;;4992726;28;20201;-73
2021/12/16 04:21:34;;;;;;;0.10;0.10;;;6.60;99.90;226.50;231333.00;;;;4988562;28;20219;-74
2021/12/16 04:24:03;;;;;;;0.00;0.00;;;6.60;99.90;226.50;231333.00;;;;4988555;28;20224;-73
2021/12/16 04:26:32;;;;;;;0.10;0.10;;;6.60;99.90;226.50;231333.00;;;;4989598;28;20203;-74
2021/12/16 04:29:03;;;;;;;0.10;0.10;;;6.60;99.90;226.50;231333.00;;;;4989470;28;20295;-74
2021/12/16 04:31:35;;;;;;;0.10;0.10;;;6.60;99.90;226.50;231333.00;;;;4991106;28;20760;-73
2021/12/16 04:34:08;;;;;;;0.10;0.10;;;6.50;99.90;226.50;231333.00;;;;5004895;28;20296;-73
2021/12/16 04:36:39;;;;;;;0.00;0.00;;;6.50;99.90;226.50;161130.00;;;;4987614;28;20196;-74
2021/12/16 04:39:13;;;;;;;0.10;0.10;;;6.50;99.90;226.50;231333.00;;;;4982373;28;20239;-74
2021/12/16 04:41:43;;;;;;;0.00;0.00;;;6.60;99.90;226.50;231333.00;;;;5004579;28;20992;-74
2021/12/16 04:44:15;;;;;;;0.10;0.10;;;6.60;99.90;226.50;231333.00;;;;4987754;28;20245;-73
2021/12/16 04:46:46;;;;;;;0.10;0.10;;;6.60;99.90;226.50;231333.00;;;;4990658;28;20228;-74
2021/12/16 04:49:17;;;;;;;0.10;0.10;;;6.60;99.90;226.50;231333.00;;;;4991345;28;20202;-73
2021/12/16 04:51:51;;;;;;;0.00;0.00;;;6.60;99.90;226.50;231333.00;;;;4992800;28;20232;-73
2021/12/16 04:54:23;;;;;;;0.10;0.10;;;6.50;99.90;226.50;231333.00;;;;4985323;28;20311;-75
2021/12/16 04:56:54;;;;;;;0.00;0.00;;;6.50;99.90;226.50;231333.00;;;;4991328;28;20224;-74
2021/12/16 04:59:24;;;;;;;0.00;0.00;;;6.60;99.90;226.50;231333.00;;;;4990581;28;20330;-74
2021/12/16 05:02:01;;;;;;;0.10;0.10;;;6.60;99.90;226.50;231333.00;;;;5005644;28;20232;-74
2021/12/16 05:04:52;;;;;;;0.10;0.10;;;6.50;99.90;226.50;231333.00;;;;4988857;28;20232;-73
2021/12/16 05:07:22;;;;;;;0.10;0.10;;;6.50;99.90;226.50;231333.00;;;;5007623;28;20712;-74
2021/12/16 05:10:11;;;;;;;0.10;0.10;;;6.50;99.90;226.50;231333.00;;;;4992536;28;20220;-74
2021/12/16 05:12:49;;;;;;;0.10;0.10;;;6.50;99.90;226.50;231333.00;;;;4986699;28;20259;-75
2021/12/16 05:15:22;;;;;;;0.10;0.10;;;6.50;99.90;226.50;231333.00;;;;4988562;28;20210;-74
2021/12/16 05:17:54;;;;;;;0.10;0.10;;;6.50;99.90;226.50;231333.00;;;;5007423;28;20291;-74
2021/12/16 05:20:27;;;;;;;0.10;0.10;;;6.60;99.90;226.50;231333.00;;;;4987340;28;20201;-72
2021/12/16 05:25:57;;;;;;;0.10;0.10;;;6.60;99.90;226.50;231333.00;;;;4960796;28;20573;-73
2021/12/16 05:28:27;;;;;;;0.10;0.10;;;6.60;99.90;226.50;231333.00;;;;5003019;28;20204;-74
2021/12/16 05:30:59;;;;;;;0.10;0.10;;;6.60;99.90;226.50;231333.00;;;;4990600;28;20229;-74
2021/12/16 05:33:29;;;;;;;0.10;0.10;;;6.50;99.90;226.50;231333.00;;;;4991050;28;20282;-74
2021/12/16 05:35:58;;;;;;;0.10;0.10;;;6.50;99.90;226.50;231333.00;;;;5007575;28;20283;-75
2021/12/16 05:38:29;;;;;;;0.10;0.10;;;6.50;99.90;226.50;231333.00;;;;4993010;28;20208;-73
2021/12/16 05:40:59;;;;;;;0.10;0.10;;;6.50;99.90;226.50;231333.00;;;;4990844;28;20197;-73
2021/12/16 05:43:36;;;;;;;0.10;0.10;;;6.50;99.90;226.50;231333.00;;;;4988256;28;20577;-73
2021/12/16 05:46:05;;;;;;;0.10;0.10;;;6.60;99.90;226.50;231333.00;;;;4988704;28;20567;-73
2021/12/16 05:48:40;;;;;;;0.10;0.10;;;6.50;99.90;226.50;231333.00;;;;4990276;28;20247;-73
2021/12/16 05:51:15;;;;;;;0.10;0.10;;;6.60;99.90;226.50;231333.00;;;;4986438;28;20258;-73
2021/12/16 05:53:46;;;;;;;0.00;0.00;;;6.60;99.90;226.50;231333.00;;;;4987061;28;20287;-73
2021/12/16 05:56:41;;;;;;;0.10;0.10;;;6.60;99.90;226.50;231333.00;;;;4982449;28;20344;-75
2021/12/16 05:59:11;;;;;;;0.10;0.10;;;6.70;99.90;226.50;231333.00;;;;4983559;28;20204;-73
2021/12/16 06:01:43;;;;;;;0.10;0.10;;;6.70;99.90;226.50;231333.00;;;;4987075;28;20448;-76
2021/12/16 06:04:15;;;;;;;0.10;0.10;;;6.80;99.90;226.50;231333.00;;;;4992102;28;20697;-74
2021/12/16 06:06:43;;;;;;;0.08;0.08;;;6.80;99.90;226.50;231333.00;;;;4977126;28;20243;-76
2021/12/16 06:09:12;;;;;;;0.10;0.10;;;6.80;99.90;226.50;231333.00;;;;5003975;28;20694;-73
2021/12/16 06:11:42;;;;;;;0.10;0.10;;;6.80;99.90;226.50;231333.00;;;;4989451;28;20228;-72
2021/12/16 06:14:20;;;;;;;0.10;0.10;;;6.80;99.90;226.50;231333.00;;;;4990810;28;20221;-73
2021/12/16 06:22:54;;;;;;;0.10;0.10;;;6.60;99.90;226.50;231333.00;;;;4989197;28;20208;-72
2021/12/16 06:28:10;;;;;;;0.10;0.10;;;6.50;99.90;226.50;231333.00;;;;4996140;28;20196;-72
2021/12/16 06:30:43;;;;;;;0.10;0.10;;;6.50;99.90;226.50;231333.00;;;;4996366;28;20255;-72
2021/12/16 06:33:15;;;;;;;0.00;0.00;;;6.50;99.90;226.50;231333.00;;;;4995191;28;20224;-74
2021/12/16 06:35:45;;;;;;;0.00;0.00;;;6.50;99.90;226.50;231333.00;;;;4990605;28;20813;-73
2021/12/16 06:38:13;;;;;;;0.10;0.10;;;6.50;99.90;226.50;231333.00;;;;4996638;28;20550;-74
2021/12/16 06:40:54;;;;;;;0.10;0.10;;;6.50;99.90;226.50;231333.00;;;;4989252;28;20264;-75
2021/12/16 06:43:41;;;;;;;0.10;0.10;;;6.60;99.90;226.50;231333.00;;;;4994306;28;20220;-72
2021/12/16 06:46:14;;;;;;;0.10;0.10;;;6.70;99.90;226.50;231333.00;;;;4994991;28;20280;-73
2021/12/16 06:48:45;;;;;;;0.10;0.10;;;6.70;99.90;226.50;231333.00;;;;4990178;28;20259;-72
2021/12/16 06:51:21;;;;;;;0.10;0.10;;;6.70;99.90;226.50;231333.00;;;;4988268;28;20710;-72
2021/12/16 06:54:01;;;;;;;0.10;0.10;;;6.70;99.90;226.50;231333.00;;;;4984863;28;20220;-72
2021/12/16 06:56:35;;;;;;;0.10;0.10;;;6.80;99.90;226.50;231333.00;;;;4992591;28;20204;-73
2021/12/16 06:59:08;;;;;;;0.10;0.10;;;6.80;99.90;226.50;231333.00;;;;4992411;28;20204;-72
2021/12/16 07:01:39;;;;;;;0.10;0.10;;;6.80;99.90;226.50;231333.00;;;;4992275;28;20212;-70
2021/12/16 07:04:12;;;;;;;0.10;0.10;;;6.80;99.90;226.50;231333.00;;;;4994293;28;20223;-71
2021/12/16 07:06:42;;;;;;;0.10;0.10;;;6.80;99.90;226.50;231333.00;;;;4992601;28;20574;-73
2021/12/16 07:09:15;;;;;;;0.10;0.10;;;6.90;99.90;226.50;231333.00;;;;4989113;28;20196;-73
2021/12/16 07:11:47;;;;;;;0.10;0.10;;;6.80;99.90;226.50;231333.00;;;;4994011;28;20228;-72
2021/12/16 07:14:19;;;;;;;0.05;0.05;;;6.90;99.90;226.50;231333.00;;;;4994882;28;20224;-72
2021/12/16 07:16:51;;;;;;;0.10;0.10;;;6.90;99.90;226.50;231333.00;;;;4994011;28;20295;-73
2021/12/16 07:19:20;;;;;;;0.00;0.00;;;6.90;99.90;226.50;231333.00;;;;4995026;28;20200;-73
2021/12/16 07:21:49;;;;;;;0.10;0.10;;;6.90;99.90;226.50;231333.00;;;;4990378;28;20201;-73
2021/12/16 07:24:20;;;;;;;0.00;0.00;;;6.90;99.90;226.50;231333.00;;;;4989539;28;20264;-74
2021/12/16 07:26:49;;;;;;;0.10;0.10;;;6.90;99.90;226.50;231333.00;;;;4994362;28;20555;-73
2021/12/16 07:29:18;;;;;;;0.10;0.10;;;6.90;99.90;226.50;231333.00;;;;4994660;28;20193;-72
2021/12/16 07:31:46;;;;;;;0.00;0.00;;;6.90;99.90;226.50;231333.00;;;;4992067;28;20255;-72
2021/12/16 07:34:15;;;;;;;0.10;0.10;;;6.90;99.90;226.50;231333.00;;;;4993234;28;20220;-71
2021/12/16 07:36:45;;;;;;;0.00;0.00;;;6.90;99.90;226.50;231333.00;;;;4988747;28;20429;-72
2021/12/16 07:39:18;;;;;;;0.10;0.10;;;6.90;99.90;226.50;231333.00;;;;4992748;28;20211;-73
2021/12/16 07:41:49;;;;;;;0.10;0.10;;;6.90;99.90;226.50;231333.00;;;;4992361;28;20787;-74
2021/12/16 07:44:18;;;;;;;0.10;0.10;;;6.90;99.90;226.50;231333.00;;;;4985533;28;20245;-72
2021/12/16 07:46:52;;;;;;;0.10;0.10;;;6.90;99.90;226.50;231333.00;;;;4985484;28;20196;-73
2021/12/16 07:49:25;;;;;;;0.00;0.00;;;6.90;99.90;226.50;231333.00;;;;4993629;28;20200;-74
2021/12/16 07:51:55;;;;;;;0.10;0.10;;;6.90;99.90;226.50;231333.00;;;;4992882;28;20530;-73
2021/12/16 07:54:25;;;;;;;0.10;0.10;;;7.00;99.90;226.50;231333.00;;;;4989203;28;20212;-73
2021/12/16 07:56:58;;;;;;;0.10;0.10;;;7.00;99.90;226.50;231333.00;;;;4990130;28;20696;-73
2021/12/16 07:59:28;;;;;;;0.10;0.10;;;7.10;99.90;226.50;231333.00;;;;4992073;28;20200;-72
2021/12/16 08:01:58;;;;;;;0.10;0.10;;;7.00;99.90;226.50;231333.00;;;;4992933;28;20207;-72
2021/12/16 08:04:30;;;;;;;0.10;0.10;;;7.00;99.90;226.50;231333.00;;;;4988265;28;20225;-72
2021/12/16 08:07:04;;;;;;;0.10;0.10;;;7.00;99.90;226.50;231333.00;;;;4990336;28;20211;-72
2021/12/16 08:09:35;;;;;;;0.10;0.10;;;7.00;99.90;226.50;231333.00;;;;4992923;28;20196;-73
2021/12/16 08:12:05;;;;;;;0.00;0.00;;;7.00;99.90;226.50;231333.00;;;;4988559;28;20356;-72
2021/12/16 08:14:33;;;;;;;0.10;0.10;;;7.00;99.90;226.50;231333.00;;;;4988797;28;20725;-71
2021/12/16 08:17:01;;;;;;;0.08;0.08;;;7.00;99.90;226.50;231333.00;;;;4992928;28;20733;-72
2021/12/16 08:19:33;;;;;;;0.10;0.10;;;7.00;99.90;226.50;231333.00;;;;4985724;28;20602;-72
2021/12/16 08:22:02;;;;;;;0.10;0.10;;;7.00;99.90;226.50;231333.00;;;;4989600;28;20247;-72
2021/12/16 08:24:30;;;;;;;0.10;0.10;;;7.00;99.90;226.50;231333.00;;;;4991611;28;20224;-72
2021/12/16 08:27:00;;;;;;;0.10;0.10;;;7.00;99.90;226.50;231333.00;;;;4993098;28;20204;-72
2021/12/16 08:29:28;;;;;;;0.10;0.10;;;7.10;99.90;226.50;231333.00;;;;4989245;28;20196;-72
2021/12/16 08:31:57;;;;;;;0.10;0.10;;;7.10;99.90;226.50;231333.00;;;;4987807;28;20264;-72
2021/12/16 08:34:27;;;;;;;0.00;0.00;;;7.10;99.90;226.50;231333.00;;;;4987303;28;20224;-72
2021/12/16 08:36:55;;;;;;;0.10;0.10;;;7.10;99.90;226.50;231333.00;;;;4985425;28;20622;-73
2021/12/16 08:39:25;;;;;;;0.10;0.10;;;7.10;99.90;226.50;231333.00;;;;4987167;28;20599;-72
2021/12/16 08:41:57;;;;;;;0.10;0.10;;;7.10;99.90;226.50;231333.00;;;;4985483;28;20239;-72
2021/12/16 08:44:28;;;;;;;0.10;0.10;;;7.10;99.90;226.50;231333.00;;;;4986357;28;20259;-72
2021/12/16 08:47:08;;;;;;;0.10;0.10;;;7.10;99.90;226.50;231333.00;;;;4989142;28;20728;-72
2021/12/16 08:49:37;;;;;;;0.10;0.10;;;7.10;99.90;226.50;231333.00;;;;4992874;28;20200;-72
2021/12/16 08:52:09;;;;;;;0.03;0.03;;;7.10;99.90;226.50;231333.00;;;;4991627;28;20825;-72
2021/12/16 08:54:37;;;;;;;0.10;0.10;;;7.10;99.90;226.50;231333.00;;;;4991794;28;20222;-72
2021/12/16 08:57:06;;;;;;;0.10;0.10;;;7.10;99.90;226.50;231333.00;;;;4980773;28;20193;-72
2021/12/16 08:59:36;;;;;;;0.10;0.10;;;7.20;99.90;226.50;231333.00;;;;4986778;28;20200;-73
2021/12/16 09:02:08;;;;;;;0.10;0.10;;;7.30;99.90;226.50;231333.00;;;;4991039;28;20619;-72
2021/12/16 09:04:39;;;;;;;0.00;0.00;;;7.20;99.90;226.50;231333.00;;;;4987104;28;20651;-71
2021/12/16 09:07:11;;;;;;;0.05;0.05;;;7.30;99.90;226.50;231333.00;;;;4993888;28;20201;-72
2021/12/16 09:09:42;;;;;;;0.00;0.00;;;7.30;99.90;226.50;231333.00;;;;4995277;28;20200;-72
2021/12/16 09:12:37;;;;;;;0.08;0.08;;;7.30;99.90;226.50;231333.00;;;;4999750;28;20655;-72
2021/12/16 09:15:09;;;;;;;0.10;0.10;;;7.30;99.90;226.50;231333.00;;;;4988641;28;20201;-72
2021/12/16 09:17:37;;;;;;;0.00;0.00;;;7.40;99.90;226.50;231333.00;;;;4988870;28;20200;-72
2021/12/16 09:20:08;;;;;;;0.10;0.10;;;7.40;99.90;226.50;231333.00;;;;4990846;28;20582;-72
2021/12/16 09:22:37;;;;;;;0.10;0.10;;;7.40;99.90;226.50;231333.00;;;;4987954;28;20292;-72
2021/12/16 09:25:07;;;;;;;0.10;0.10;;;7.40;99.90;226.50;231333.00;;;;4982510;28;20685;-71
2021/12/16 09:27:36;;;;;;;0.10;0.10;;;7.40;99.90;226.50;231333.00;;;;4989426;28;20204;-72
2021/12/16 09:30:09;;;;;;;0.05;0.05;;;7.50;99.90;226.50;231333.00;;;;4988903;28;20196;-72
2021/12/16 09:32:37;;;;;;;0.05;0.05;;;7.50;99.90;226.50;231333.00;;;;4989631;28;20236;-72
2021/12/16 09:35:08;;;;;;;0.10;0.10;;;7.50;99.90;226.50;231333.00;;;;4986994;28;20203;-71
2021/12/16 09:37:37;;;;;;;0.10;0.10;;;7.60;99.90;226.50;231333.00;;;;4986265;28;20211;-72
2021/12/16 09:40:11;;;;;;;0.08;0.08;;;7.60;99.90;226.50;231333.00;;;;4990942;28;20242;-71
2021/12/16 09:42:39;;;;;;;0.08;0.08;;;7.70;99.90;226.50;231333.00;;;;4987108;28;20349;-72
2021/12/16 09:45:11;;;;;;;0.10;0.10;;;7.70;99.90;226.50;231333.00;;;;4984906;28;20204;-72
2021/12/16 09:47:40;;;;;;;0.10;0.10;;;7.80;99.90;226.50;231333.00;;;;4979526;28;20212;-72
2021/12/16 09:50:13;;;;;;;0.10;0.10;;;7.70;99.90;226.50;231333.00;;;;4990090;28;20205;-72
2021/12/16 09:52:42;;;;;;;0.10;0.10;;;7.70;99.90;226.50;231333.00;;;;4986595;28;20578;-72
2021/12/16 09:55:11;;;;;;;0.00;0.00;;;7.70;99.90;226.50;231333.00;;;;4985404;28;20251;-72
2021/12/16 09:57:39;;;;;;;0.10;0.10;;;7.70;99.90;226.50;231333.00;;;;4971585;28;20614;-71
2021/12/16 10:00:12;;;;;;;0.10;0.10;;;7.80;99.90;226.50;231333.00;;;;4972990;28;20616;-73
2021/12/16 10:02:41;;;;;;;0.10;0.10;;;7.70;99.90;226.50;231333.00;;;;4971484;28;20205;-72
2021/12/16 10:05:10;;;;;;;0.10;0.10;;;7.80;99.90;226.50;231333.00;;;;4973506;28;20205;-73
2021/12/16 10:07:38;;;;;;;0.10;0.10;;;7.80;99.90;226.50;231333.00;;;;4972762;28;20714;-72
2021/12/16 10:10:13;;;;;;;0.10;0.10;;;7.80;99.90;226.50;231333.00;;;;4973350;28;20200;-72
2021/12/16 10:12:42;;;;;;;0.10;0.10;;;7.90;99.90;226.50;231333.00;;;;4972978;28;20208;-72
2021/12/16 10:18:06;;;;;;;0.10;0.10;;;7.90;99.90;226.50;231333.00;;;;4991550;28;20196;-73
2021/12/16 10:20:39;;;;;;;0.00;0.00;;;8.00;99.90;226.50;231333.00;;;;4980948;28;20204;-72
2021/12/16 10:23:24;;;;;;;0.10;0.10;;;8.00;99.90;226.50;231333.00;;;;4987889;28;20592;-72
2021/12/16 10:25:55;;;;;;;0.10;0.10;;;8.10;99.90;226.50;231333.00;;;;4988703;28;20204;-72
2021/12/16 10:28:27;;;;;;;0.00;0.00;;;8.10;99.90;226.50;231333.00;;;;4979017;28;20671;-72
2021/12/16 10:31:02;;;;;;;0.00;0.00;;;8.10;99.90;226.50;231333.00;;;;4983603;28;20205;-72
2021/12/16 10:33:36;;;;;;;0.00;0.00;;;8.10;99.90;226.50;231333.00;;;;4976432;28;20278;-73
2021/12/16 10:36:12;;;;;;;0.10;0.10;;;8.20;99.90;226.50;231333.00;;;;4976356;28;20205;-72
2021/12/16 10:38:45;;;;;;;0.00;0.00;;;8.20;99.90;226.50;231333.00;;;;4990018;28;20262;-72
2021/12/16 10:41:20;;;;;;;0.10;0.10;;;8.20;99.90;226.50;231333.00;;;;4991258;28;20671;-72
2021/12/16 10:43:53;;;;;;;0.10;0.10;;;8.20;99.90;226.50;231333.00;;;;4976329;28;20228;-72
2021/12/16 10:46:27;;;;;;;0.10;0.10;;;8.20;99.90;226.50;231333.00;;;;4976315;28;20558;-72
2021/12/16 10:48:59;;;;;;;0.00;0.00;;;8.30;99.90;226.50;231333.00;;;;4974795;28;20746;-72
2021/12/16 10:51:31;;;;;;;0.10;0.10;;;8.30;99.90;226.50;231333.00;;;;4976627;28;20197;-72
2021/12/16 10:54:17;;;;;;;0.00;0.00;;;8.30;99.90;226.50;231333.00;;;;4976298;28;20235;-72
2021/12/16 10:56:54;;;;;;;0.00;0.00;;;8.40;99.90;226.50;231333.00;;;;4975999;28;20201;-72
2021/12/16 10:59:32;;;;;;;0.00;0.00;;;8.40;99.90;226.50;231333.00;;;;4976324;28;20580;-72
2021/12/16 11:02:16;;;;;;;0.10;0.10;;;8.40;99.90;226.50;231333.00;;;;4987375;28;20261;-72
2021/12/16 11:04:51;;;;;;;0.10;0.10;;;8.50;99.90;226.50;231333.00;;;;4990687;28;20258;-72
2021/12/16 11:07:27;;;;;;;0.05;0.05;;;8.40;99.90;226.50;231333.00;;;;4978401;28;20224;-73
2021/12/16 11:10:10;;;;;;;0.03;0.03;;;8.40;99.90;226.50;231333.00;;;;4975477;28;20262;-72
2021/12/16 11:12:44;;;;;;;0.10;0.10;;;8.40;99.90;226.50;231333.00;;;;4976365;28;20204;-72
2021/12/16 11:15:27;;;;;;;0.00;0.00;;;8.40;99.90;226.50;231333.00;;;;4975584;28;20231;-72
2021/12/16 11:18:05;;;;;;;0.10;0.10;;;8.40;99.90;226.50;231333.00;;;;4975915;28;20554;-72
2021/12/16 11:20:38;;;;;;;0.10;0.10;;;8.40;99.90;226.50;231333.00;;;;4986584;28;20204;-72
2021/12/16 11:23:11;;;;;;;0.10;0.10;;;8.40;99.90;226.50;231333.00;;;;5008525;28;20314;-73
2021/12/16 11:25:42;;;;;;;0.10;0.10;;;8.50;99.90;226.50;231333.00;;;;4975130;28;20659;-72
2021/12/16 11:28:19;;;;;;;0.00;0.00;;;8.40;99.90;226.50;231333.00;;;;4975368;28;20205;-72
2021/12/16 11:30:55;;;;;;;0.10;0.10;;;8.40;99.90;226.50;231333.00;;;;5003421;28;20658;-72
2021/12/16 11:33:33;;;;;;;0.10;0.10;;;8.40;99.90;226.50;231333.00;;;;4977156;28;20221;-72
2021/12/16 11:36:11;;;;;;;0.10;0.10;;;8.40;99.90;226.50;231333.00;;;;4973979;28;20806;-72
2021/12/16 11:38:44;;;;;;;0.10;0.10;;;8.40;99.90;226.50;161912.00;;;;5002035;28;20266;-72
2021/12/16 11:41:31;;;;;;;0.10;0.10;;;8.40;99.90;226.50;231333.00;;;;4994812;28;20202;-73
2021/12/16 11:44:14;;;;;;;0.10;0.10;;;8.50;99.90;226.50;231333.00;;;;4987801;28;20295;-72
2021/12/16 11:46:50;;;;;;;0.10;0.10;;;8.50;99.90;226.50;231333.00;;;;4974755;28;20201;-73
2021/12/16 11:49:27;;;;;;;0.10;0.10;;;8.50;99.90;226.50;231333.00;;;;4991017;28;20258;-73
2021/12/16 11:52:03;;;;;;;0.10;0.10;;;8.60;99.90;226.50;231333.00;;;;4975308;28;20204;-73
2021/12/16 11:54:36;;;;;;;0.10;0.10;;;8.50;99.90;226.50;231333.00;;;;4975205;28;20228;-73
2021/12/16 11:57:14;;;;;;;0.00;0.00;;;8.60;99.90;226.50;231333.00;;;;4974928;28;20205;-72
2021/12/16 11:59:47;;;;;;;0.00;0.00;;;8.60;99.90;226.50;231333.00;;;;4974604;28;20208;-72
2021/12/16 12:02:26;;;;;;;0.10;0.10;;;8.60;99.90;226.50;231333.00;;;;4975046;28;20263;-72
2021/12/16 12:05:17;;;;;;;0.00;0.00;;;8.60;99.90;226.50;231333.00;;;;4978849;28;20256;-72
2021/12/16 12:07:49;;;;;;;0.10;0.10;;;8.60;99.90;226.50;231333.00;;;;4987174;28;20718;-73
2021/12/16 12:10:36;;;;;;;0.00;0.00;;;8.70;99.90;226.50;231333.00;;;;4975629;28;20244;-73
2021/12/16 12:13:07;;;;;;;0.03;0.03;;;8.60;99.90;226.50;231333.00;;;;4981010;28;20248;-73
2021/12/16 12:15:53;;;;;;;0.10;0.10;;;8.60;99.90;226.50;231333.00;;;;4983999;28;20247;-73
2021/12/16 12:18:34;;;;;;;0.10;0.10;;;8.50;99.90;226.50;231333.00;;;;4973918;28;20345;-73
2021/12/16 12:21:25;;;;;;;0.10;0.10;;;8.50;99.90;226.50;231333.00;;;;4975005;28;20210;-73
2021/12/16 12:23:58;;;;;;;0.10;0.10;;;8.50;99.90;226.50;231333.00;;;;4974610;28;20225;-73
2021/12/16 12:26:30;;;;;;;0.10;0.10;;;8.50;99.90;226.50;231333.00;;;;4974885;28;20252;-73
2021/12/16 12:29:02;;;;;;;0.10;0.10;;;8.40;99.90;226.50;231333.00;;;;4974895;28;20205;-73
2021/12/16 12:31:36;;;;;;;0.00;0.00;;;8.30;99.90;226.50;231333.00;;;;4974937;28;20619;-73
2021/12/16 12:34:04;;;;;;;0.10;0.10;;;8.40;99.90;226.50;231333.00;;;;4975420;28;20213;-73
2021/12/16 12:36:35;;;;;;;0.10;0.10;;;8.40;99.90;226.50;231333.00;;;;4985021;28;20256;-73
2021/12/16 12:39:06;;;;;;;0.10;0.10;;;8.40;99.90;226.50;231333.00;;;;4993121;28;20410;-73
2021/12/16 12:41:35;;;;;;;0.10;0.10;;;8.40;99.90;226.50;231333.00;;;;4991057;28;20237;-73
2021/12/16 12:44:05;;;;;;;0.10;0.10;;;8.40;99.90;226.50;231333.00;;;;4992260;28;20220;-72
2021/12/16 12:46:38;;;;;;;0.10;0.10;;;8.40;99.90;226.50;231333.00;;;;4997602;28;20209;-72
2021/12/16 12:49:11;;;;;;;0.00;0.00;;;8.30;99.90;226.50;231333.00;;;;4998624;28;20201;-72
2021/12/16 12:51:44;;;;;;;0.10;0.10;;;8.20;99.90;226.50;231333.00;;;;4981666;28;20264;-72
2021/12/16 12:54:23;;;;;;;0.03;0.03;;;8.30;99.90;226.50;231333.00;;;;4973546;28;20225;-73